sensor_id;sensor_type;location;lat;lon;timestamp;P1;durP1;ratioP1;P2;durP2;ratioP2
15990;SDS011;8100;50.994;4.538;2022-08-11T00:01:43;3.10;;;1.52;;
15990;SDS011;8100;50.994;4.538;2022-08-11T00:04:33;3.63;;;1.65;;
15990;SDS011;8100;50.994;4.538;2022-08-11T00:07:22;3.45;;;1.63;;
15990;SDS011;8100;50.994;4.538;2022-08-11T00:10:09;3.00;;;1.70;;
15990;SDS011;8100;50.994;4.538;2022-08-11T00:12:58;1.98;;;1.55;;
15990;SDS011;8100;50.994;4.538;2022-08-11T00:15:47;2.72;;;1.52;;
15990;SDS011;8100;50.994;4.538;2022-08-11T00:18:38;2.38;;;1.77;;
15990;SDS011;8100;50.994;4.538;2022-08-11T00:21:27;2.17;;;1.48;;
15990;SDS011;8100;50.994;4.538;2022-08-11T00:24:13;1.48;;;1.30;;
15990;SDS011;8100;50.994;4.538;2022-08-11T00:27:02;2.45;;;1.58;;
15990;SDS011;8100;50.994;4.538;2022-08-11T00:29:53;3.67;;;1.35;;
15990;SDS011;8100;50.994;4.538;2022-08-11T00:32:40;1.77;;;1.60;;
15990;SDS011;8100;50.994;4.538;2022-08-11T00:35:29;1.75;;;1.40;;
15990;SDS011;8100;50.994;4.538;2022-08-11T00:38:21;3.50;;;1.33;;
15990;SDS011;8100;50.994;4.538;2022-08-11T00:41:15;3.00;;;1.65;;
15990;SDS011;8100;50.994;4.538;2022-08-11T00:44:10;3.63;;;1.52;;
15990;SDS011;8100;50.994;4.538;2022-08-11T00:47:17;1.33;;;1.13;;
15990;SDS011;8100;50.994;4.538;2022-08-11T00:50:13;2.05;;;1.35;;
15990;SDS011;8100;50.994;4.538;2022-08-11T00:53:11;2.42;;;1.30;;
15990;SDS011;8100;50.994;4.538;2022-08-11T00:56:17;1.85;;;1.40;;
15990;SDS011;8100;50.994;4.538;2022-08-11T00:59:47;1.50;;;1.40;;
15990;SDS011;8100;50.994;4.538;2022-08-11T01:02:53;1.98;;;1.48;;
15990;SDS011;8100;50.994;4.538;2022-08-11T01:09:23;1.95;;;1.35;;
15990;SDS011;8100;50.994;4.538;2022-08-11T01:15:39;1.67;;;1.40;;
15990;SDS011;8100;50.994;4.538;2022-08-11T01:36:00;2.47;;;1.52;;
15990;SDS011;8100;50.994;4.538;2022-08-11T01:42:37;2.33;;;1.50;;
15990;SDS011;8100;50.994;4.538;2022-08-11T01:46:14;2.22;;;1.33;;
15990;SDS011;8100;50.994;4.538;2022-08-11T01:49:05;2.38;;;1.70;;
15990;SDS011;8100;50.994;4.538;2022-08-11T01:52:14;2.45;;;1.17;;
15990;SDS011;8100;50.994;4.538;2022-08-11T01:55:13;1.98;;;1.40;;
15990;SDS011;8100;50.994;4.538;2022-08-11T01:58:07;3.13;;;1.33;;
15990;SDS011;8100;50.994;4.538;2022-08-11T02:01:01;2.30;;;1.60;;
15990;SDS011;8100;50.994;4.538;2022-08-11T02:03:57;2.45;;;1.50;;
15990;SDS011;8100;50.994;4.538;2022-08-11T02:06:52;3.42;;;1.58;;
15990;SDS011;8100;50.994;4.538;2022-08-11T02:09:59;2.63;;;1.30;;
15990;SDS011;8100;50.994;4.538;2022-08-11T02:13:12;1.95;;;1.38;;
15990;SDS011;8100;50.994;4.538;2022-08-11T02:16:03;2.65;;;1.83;;
15990;SDS011;8100;50.994;4.538;2022-08-11T02:19:00;2.38;;;1.63;;
15990;SDS011;8100;50.994;4.538;2022-08-11T02:22:15;2.72;;;1.45;;
15990;SDS011;8100;50.994;4.538;2022-08-11T02:25:30;2.40;;;1.55;;
15990;SDS011;8100;50.994;4.538;2022-08-11T02:28:23;2.05;;;1.60;;
15990;SDS011;8100;50.994;4.538;2022-08-11T02:31:17;2.38;;;1.42;;
15990;SDS011;8100;50.994;4.538;2022-08-11T02:34:29;2.60;;;1.63;;
15990;SDS011;8100;50.994;4.538;2022-08-11T02:37:23;4.07;;;1.40;;
15990;SDS011;8100;50.994;4.538;2022-08-11T02:40:21;2.42;;;1.60;;
15990;SDS011;8100;50.994;4.538;2022-08-11T02:43:21;2.05;;;1.50;;
15990;SDS011;8100;50.994;4.538;2022-08-11T02:46:17;2.90;;;1.70;;
15990;SDS011;8100;50.994;4.538;2022-08-11T02:49:10;3.70;;;1.63;;
15990;SDS011;8100;50.994;4.538;2022-08-11T02:52:23;2.85;;;1.80;;
15990;SDS011;8100;50.994;4.538;2022-08-11T02:55:18;2.95;;;1.90;;
15990;SDS011;8100;50.994;4.538;2022-08-11T02:58:13;2.42;;;1.58;;
15990;SDS011;8100;50.994;4.538;2022-08-11T03:01:05;2.45;;;1.80;;
15990;SDS011;8100;50.994;4.538;2022-08-11T03:04:05;2.70;;;1.67;;
15990;SDS011;8100;50.994;4.538;2022-08-11T03:07:00;3.47;;;1.60;;
15990;SDS011;8100;50.994;4.538;2022-08-11T03:09:54;1.60;;;1.40;;
15990;SDS011;8100;50.994;4.538;2022-08-11T03:12:48;1.83;;;1.48;;
15990;SDS011;8100;50.994;4.538;2022-08-11T03:15:59;2.78;;;1.90;;
15990;SDS011;8100;50.994;4.538;2022-08-11T03:19:24;2.25;;;1.65;;
15990;SDS011;8100;50.994;4.538;2022-08-11T03:22:16;2.35;;;1.73;;
15990;SDS011;8100;50.994;4.538;2022-08-11T03:25:09;2.50;;;1.70;;
15990;SDS011;8100;50.994;4.538;2022-08-11T03:28:20;2.05;;;1.60;;
15990;SDS011;8100;50.994;4.538;2022-08-11T03:31:19;2.75;;;1.80;;
15990;SDS011;8100;50.994;4.538;2022-08-11T03:34:12;2.28;;;1.50;;
15990;SDS011;8100;50.994;4.538;2022-08-11T03:40:34;1.88;;;1.58;;
15990;SDS011;8100;50.994;4.538;2022-08-11T03:43:58;2.92;;;1.77;;
15990;SDS011;8100;50.994;4.538;2022-08-11T03:47:05;1.80;;;1.45;;
15990;SDS011;8100;50.994;4.538;2022-08-11T03:50:06;2.63;;;1.55;;
15990;SDS011;8100;50.994;4.538;2022-08-11T03:53:06;2.60;;;1.60;;
15990;SDS011;8100;50.994;4.538;2022-08-11T03:56:26;2.08;;;1.67;;
15990;SDS011;8100;50.994;4.538;2022-08-11T04:00:03;1.80;;;1.70;;
15990;SDS011;8100;50.994;4.538;2022-08-11T04:03:22;2.38;;;1.80;;
15990;SDS011;8100;50.994;4.538;2022-08-11T04:06:46;1.98;;;1.48;;
15990;SDS011;8100;50.994;4.538;2022-08-11T04:10:11;1.90;;;1.70;;
15990;SDS011;8100;50.994;4.538;2022-08-11T04:17:19;2.83;;;1.67;;
15990;SDS011;8100;50.994;4.538;2022-08-11T04:20:30;2.72;;;1.67;;
15990;SDS011;8100;50.994;4.538;2022-08-11T04:23:49;2.05;;;1.42;;
15990;SDS011;8100;50.994;4.538;2022-08-11T04:27:05;2.45;;;1.40;;
15990;SDS011;8100;50.994;4.538;2022-08-11T04:30:16;1.92;;;1.70;;
15990;SDS011;8100;50.994;4.538;2022-08-11T04:33:18;3.08;;;1.48;;
15990;SDS011;8100;50.994;4.538;2022-08-11T04:36:14;2.17;;;1.60;;
15990;SDS011;8100;50.994;4.538;2022-08-11T04:39:38;4.13;;;1.60;;
15990;SDS011;8100;50.994;4.538;2022-08-11T04:42:56;1.70;;;1.50;;
15990;SDS011;8100;50.994;4.538;2022-08-11T04:46:27;2.42;;;1.50;;
15990;SDS011;8100;50.994;4.538;2022-08-11T04:49:37;2.95;;;1.70;;
15990;SDS011;8100;50.994;4.538;2022-08-11T04:56:30;2.22;;;1.60;;
15990;SDS011;8100;50.994;4.538;2022-08-11T04:59:46;2.25;;;1.52;;
15990;SDS011;8100;50.994;4.538;2022-08-11T05:10:09;2.15;;;1.67;;
15990;SDS011;8100;50.994;4.538;2022-08-11T05:13:04;2.30;;;1.73;;
15990;SDS011;8100;50.994;4.538;2022-08-11T05:16:07;3.40;;;2.03;;
15990;SDS011;8100;50.994;4.538;2022-08-11T05:19:14;3.55;;;1.58;;
15990;SDS011;8100;50.994;4.538;2022-08-11T05:22:20;3.20;;;1.73;;
15990;SDS011;8100;50.994;4.538;2022-08-11T05:25:32;2.45;;;1.95;;
15990;SDS011;8100;50.994;4.538;2022-08-11T05:28:37;3.05;;;2.00;;
15990;SDS011;8100;50.994;4.538;2022-08-11T05:31:45;2.90;;;1.80;;
15990;SDS011;8100;50.994;4.538;2022-08-11T05:34:41;3.35;;;1.85;;
15990;SDS011;8100;50.994;4.538;2022-08-11T05:37:40;2.35;;;1.98;;
15990;SDS011;8100;50.994;4.538;2022-08-11T05:40:28;3.63;;;2.45;;
15990;SDS011;8100;50.994;4.538;2022-08-11T05:43:38;2.70;;;2.25;;
15990;SDS011;8100;50.994;4.538;2022-08-11T05:46:28;2.90;;;1.95;;
15990;SDS011;8100;50.994;4.538;2022-08-11T05:49:40;2.97;;;2.25;;
15990;SDS011;8100;50.994;4.538;2022-08-11T05:52:45;4.43;;;2.30;;
15990;SDS011;8100;50.994;4.538;2022-08-11T05:55:49;4.20;;;2.58;;
15990;SDS011;8100;50.994;4.538;2022-08-11T05:58:56;3.97;;;2.33;;
15990;SDS011;8100;50.994;4.538;2022-08-11T06:01:43;4.85;;;2.65;;
15990;SDS011;8100;50.994;4.538;2022-08-11T06:04:32;4.45;;;2.60;;
15990;SDS011;8100;50.994;4.538;2022-08-11T06:07:25;3.72;;;2.30;;
15990;SDS011;8100;50.994;4.538;2022-08-11T06:10:23;11.40;;;3.60;;
15990;SDS011;8100;50.994;4.538;2022-08-11T06:13:14;3.95;;;2.90;;
15990;SDS011;8100;50.994;4.538;2022-08-11T06:16:03;5.50;;;3.40;;
15990;SDS011;8100;50.994;4.538;2022-08-11T06:18:51;4.72;;;2.50;;
15990;SDS011;8100;50.994;4.538;2022-08-11T06:21:42;5.25;;;3.10;;
15990;SDS011;8100;50.994;4.538;2022-08-11T06:24:32;3.70;;;2.40;;
15990;SDS011;8100;50.994;4.538;2022-08-11T06:27:21;4.55;;;2.80;;
15990;SDS011;8100;50.994;4.538;2022-08-11T06:30:11;7.53;;;4.07;;
15990;SDS011;8100;50.994;4.538;2022-08-11T06:33:00;5.20;;;3.28;;
15990;SDS011;8100;50.994;4.538;2022-08-11T06:35:52;5.13;;;3.30;;
15990;SDS011;8100;50.994;4.538;2022-08-11T06:38:52;5.25;;;3.35;;
15990;SDS011;8100;50.994;4.538;2022-08-11T06:41:47;4.50;;;2.83;;
15990;SDS011;8100;50.994;4.538;2022-08-11T06:44:38;5.15;;;2.53;;
15990;SDS011;8100;50.994;4.538;2022-08-11T06:47:27;6.57;;;2.97;;
15990;SDS011;8100;50.994;4.538;2022-08-11T06:50:17;2.75;;;2.20;;
15990;SDS011;8100;50.994;4.538;2022-08-11T06:53:23;8.73;;;2.88;;
15990;SDS011;8100;50.994;4.538;2022-08-11T06:56:11;3.33;;;2.28;;
15990;SDS011;8100;50.994;4.538;2022-08-11T06:59:17;4.22;;;2.60;;
15990;SDS011;8100;50.994;4.538;2022-08-11T07:02:26;4.32;;;2.67;;
15990;SDS011;8100;50.994;4.538;2022-08-11T07:05:20;5.03;;;2.40;;
15990;SDS011;8100;50.994;4.538;2022-08-11T07:08:24;3.13;;;2.25;;
15990;SDS011;8100;50.994;4.538;2022-08-11T07:11:58;5.65;;;2.50;;
15990;SDS011;8100;50.994;4.538;2022-08-11T07:15:05;4.40;;;2.58;;
15990;SDS011;8100;50.994;4.538;2022-08-11T07:18:19;4.50;;;2.30;;
15990;SDS011;8100;50.994;4.538;2022-08-11T07:21:29;5.55;;;2.20;;
15990;SDS011;8100;50.994;4.538;2022-08-11T07:24:37;4.00;;;2.25;;
15990;SDS011;8100;50.994;4.538;2022-08-11T07:27:44;3.60;;;2.28;;
15990;SDS011;8100;50.994;4.538;2022-08-11T07:30:52;5.05;;;2.58;;
15990;SDS011;8100;50.994;4.538;2022-08-11T07:33:45;5.00;;;2.50;;
15990;SDS011;8100;50.994;4.538;2022-08-11T07:36:37;2.88;;;2.13;;
15990;SDS011;8100;50.994;4.538;2022-08-11T07:39:26;3.40;;;2.30;;
15990;SDS011;8100;50.994;4.538;2022-08-11T07:42:18;3.63;;;2.10;;
15990;SDS011;8100;50.994;4.538;2022-08-11T07:45:07;2.88;;;1.73;;
15990;SDS011;8100;50.994;4.538;2022-08-11T07:48:13;2.75;;;2.30;;
15990;SDS011;8100;50.994;4.538;2022-08-11T07:51:19;4.65;;;2.15;;
15990;SDS011;8100;50.994;4.538;2022-08-11T07:54:25;2.47;;;2.03;;
15990;SDS011;8100;50.994;4.538;2022-08-11T07:57:13;4.60;;;2.38;;
15990;SDS011;8100;50.994;4.538;2022-08-11T08:00:18;2.20;;;1.90;;
15990;SDS011;8100;50.994;4.538;2022-08-11T08:03:23;2.92;;;2.00;;
15990;SDS011;8100;50.994;4.538;2022-08-11T08:06:29;2.95;;;1.95;;
15990;SDS011;8100;50.994;4.538;2022-08-11T08:09:37;2.58;;;1.98;;
15990;SDS011;8100;50.994;4.538;2022-08-11T08:12:43;5.38;;;1.90;;
15990;SDS011;8100;50.994;4.538;2022-08-11T08:15:48;5.57;;;2.30;;
15990;SDS011;8100;50.994;4.538;2022-08-11T08:18:53;2.70;;;2.13;;
15990;SDS011;8100;50.994;4.538;2022-08-11T08:21:41;5.22;;;1.83;;
15990;SDS011;8100;50.994;4.538;2022-08-11T08:24:34;2.28;;;1.88;;
15990;SDS011;8100;50.994;4.538;2022-08-11T08:27:23;2.08;;;1.88;;
15990;SDS011;8100;50.994;4.538;2022-08-11T08:30:12;2.80;;;2.20;;
15990;SDS011;8100;50.994;4.538;2022-08-11T08:33:20;3.83;;;2.05;;
15990;SDS011;8100;50.994;4.538;2022-08-11T08:36:09;2.83;;;2.20;;
15990;SDS011;8100;50.994;4.538;2022-08-11T08:38:59;6.32;;;2.20;;
15990;SDS011;8100;50.994;4.538;2022-08-11T08:41:46;2.60;;;2.13;;
15990;SDS011;8100;50.994;4.538;2022-08-11T08:44:40;2.47;;;1.85;;
15990;SDS011;8100;50.994;4.538;2022-08-11T08:47:34;3.53;;;2.17;;
15990;SDS011;8100;50.994;4.538;2022-08-11T08:50:23;4.07;;;2.65;;
15990;SDS011;8100;50.994;4.538;2022-08-11T08:53:33;2.85;;;2.05;;
15990;SDS011;8100;50.994;4.538;2022-08-11T08:56:25;2.80;;;1.80;;
15990;SDS011;8100;50.994;4.538;2022-08-11T08:59:13;5.03;;;1.85;;
15990;SDS011;8100;50.994;4.538;2022-08-11T09:02:04;2.40;;;1.98;;
15990;SDS011;8100;50.994;4.538;2022-08-11T09:04:55;2.95;;;2.17;;
15990;SDS011;8100;50.994;4.538;2022-08-11T09:07:44;2.35;;;1.85;;
15990;SDS011;8100;50.994;4.538;2022-08-11T09:10:35;3.10;;;1.88;;
15990;SDS011;8100;50.994;4.538;2022-08-11T09:13:23;2.17;;;1.90;;
15990;SDS011;8100;50.994;4.538;2022-08-11T09:16:13;3.78;;;2.30;;
15990;SDS011;8100;50.994;4.538;2022-08-11T09:19:03;3.33;;;1.95;;
15990;SDS011;8100;50.994;4.538;2022-08-11T09:21:52;2.90;;;2.10;;
15990;SDS011;8100;50.994;4.538;2022-08-11T09:24:54;4.85;;;1.90;;
15990;SDS011;8100;50.994;4.538;2022-08-11T09:27:59;3.08;;;2.22;;
15990;SDS011;8100;50.994;4.538;2022-08-11T09:30:50;3.53;;;2.25;;
15990;SDS011;8100;50.994;4.538;2022-08-11T09:33:39;2.80;;;2.17;;
15990;SDS011;8100;50.994;4.538;2022-08-11T09:36:29;1.98;;;1.73;;
15990;SDS011;8100;50.994;4.538;2022-08-11T09:39:36;4.70;;;2.50;;
15990;SDS011;8100;50.994;4.538;2022-08-11T09:42:43;3.08;;;2.22;;
15990;SDS011;8100;50.994;4.538;2022-08-11T09:45:49;2.47;;;1.92;;
15990;SDS011;8100;50.994;4.538;2022-08-11T09:48:39;3.42;;;2.15;;
15990;SDS011;8100;50.994;4.538;2022-08-11T09:51:30;2.10;;;1.77;;
15990;SDS011;8100;50.994;4.538;2022-08-11T09:54:19;2.47;;;2.08;;
15990;SDS011;8100;50.994;4.538;2022-08-11T09:57:08;2.95;;;2.13;;
15990;SDS011;8100;50.994;4.538;2022-08-11T10:00:14;2.60;;;1.85;;
15990;SDS011;8100;50.994;4.538;2022-08-11T10:03:02;2.63;;;1.83;;
15990;SDS011;8100;50.994;4.538;2022-08-11T10:05:53;2.55;;;2.00;;
15990;SDS011;8100;50.994;4.538;2022-08-11T10:09:02;3.45;;;1.98;;
15990;SDS011;8100;50.994;4.538;2022-08-11T10:11:53;2.65;;;2.00;;
15990;SDS011;8100;50.994;4.538;2022-08-11T10:14:44;2.63;;;1.83;;
15990;SDS011;8100;50.994;4.538;2022-08-11T10:17:52;4.32;;;2.58;;
15990;SDS011;8100;50.994;4.538;2022-08-11T10:21:02;2.53;;;1.95;;
15990;SDS011;8100;50.994;4.538;2022-08-11T10:23:57;2.83;;;2.03;;
15990;SDS011;8100;50.994;4.538;2022-08-11T10:27:05;4.45;;;2.25;;
15990;SDS011;8100;50.994;4.538;2022-08-11T10:29:53;4.25;;;2.10;;
15990;SDS011;8100;50.994;4.538;2022-08-11T10:32:59;2.90;;;2.15;;
15990;SDS011;8100;50.994;4.538;2022-08-11T10:36:06;2.85;;;2.03;;
15990;SDS011;8100;50.994;4.538;2022-08-11T10:38:54;2.95;;;2.00;;
15990;SDS011;8100;50.994;4.538;2022-08-11T10:41:43;2.00;;;1.70;;
15990;SDS011;8100;50.994;4.538;2022-08-11T10:44:50;2.75;;;2.40;;
15990;SDS011;8100;50.994;4.538;2022-08-11T10:47:39;2.47;;;2.15;;
15990;SDS011;8100;50.994;4.538;2022-08-11T10:50:25;2.90;;;2.20;;
15990;SDS011;8100;50.994;4.538;2022-08-11T10:53:30;3.55;;;2.00;;
15990;SDS011;8100;50.994;4.538;2022-08-11T10:56:36;3.08;;;1.88;;
15990;SDS011;8100;50.994;4.538;2022-08-11T10:59:42;2.90;;;2.20;;
15990;SDS011;8100;50.994;4.538;2022-08-11T11:02:33;2.63;;;1.92;;
15990;SDS011;8100;50.994;4.538;2022-08-11T11:05:21;3.60;;;2.00;;
15990;SDS011;8100;50.994;4.538;2022-08-11T11:08:13;4.38;;;2.58;;
15990;SDS011;8100;50.994;4.538;2022-08-11T11:11:24;3.17;;;1.95;;
15990;SDS011;8100;50.994;4.538;2022-08-11T11:14:33;3.83;;;2.13;;
15990;SDS011;8100;50.994;4.538;2022-08-11T11:17:42;2.35;;;1.85;;
15990;SDS011;8100;50.994;4.538;2022-08-11T11:20:46;2.50;;;2.22;;
15990;SDS011;8100;50.994;4.538;2022-08-11T11:23:37;2.42;;;2.15;;
15990;SDS011;8100;50.994;4.538;2022-08-11T11:26:36;2.75;;;2.00;;
15990;SDS011;8100;50.994;4.538;2022-08-11T11:29:40;3.53;;;2.30;;
15990;SDS011;8100;50.994;4.538;2022-08-11T11:32:43;3.15;;;2.20;;
15990;SDS011;8100;50.994;4.538;2022-08-11T11:35:44;5.05;;;2.80;;
15990;SDS011;8100;50.994;4.538;2022-08-11T11:38:38;4.18;;;2.13;;
15990;SDS011;8100;50.994;4.538;2022-08-11T11:41:27;3.15;;;2.15;;
15990;SDS011;8100;50.994;4.538;2022-08-11T11:44:14;2.03;;;1.63;;
15990;SDS011;8100;50.994;4.538;2022-08-11T11:47:03;2.42;;;2.08;;
15990;SDS011;8100;50.994;4.538;2022-08-11T11:49:52;2.35;;;1.83;;
15990;SDS011;8100;50.994;4.538;2022-08-11T11:52:40;2.97;;;1.90;;
15990;SDS011;8100;50.994;4.538;2022-08-11T11:55:28;4.45;;;2.20;;
15990;SDS011;8100;50.994;4.538;2022-08-11T11:58:16;2.75;;;2.10;;
15990;SDS011;8100;50.994;4.538;2022-08-11T12:01:21;2.72;;;1.90;;
15990;SDS011;8100;50.994;4.538;2022-08-11T12:04:10;3.60;;;2.40;;
15990;SDS011;8100;50.994;4.538;2022-08-11T12:07:00;5.25;;;2.08;;
15990;SDS011;8100;50.994;4.538;2022-08-11T12:10:02;2.67;;;2.10;;
15990;SDS011;8100;50.994;4.538;2022-08-11T12:12:50;2.97;;;1.80;;
15990;SDS011;8100;50.994;4.538;2022-08-11T12:15:55;2.28;;;1.80;;
15990;SDS011;8100;50.994;4.538;2022-08-11T12:18:48;3.15;;;2.30;;
15990;SDS011;8100;50.994;4.538;2022-08-11T12:21:38;3.03;;;2.20;;
15990;SDS011;8100;50.994;4.538;2022-08-11T12:24:49;1.63;;;1.42;;
15990;SDS011;8100;50.994;4.538;2022-08-11T12:27:54;2.10;;;1.80;;
15990;SDS011;8100;50.994;4.538;2022-08-11T12:30:42;2.10;;;1.70;;
15990;SDS011;8100;50.994;4.538;2022-08-11T12:33:31;3.42;;;1.80;;
15990;SDS011;8100;50.994;4.538;2022-08-11T12:36:19;2.25;;;1.83;;
15990;SDS011;8100;50.994;4.538;2022-08-11T12:39:08;3.38;;;1.90;;
15990;SDS011;8100;50.994;4.538;2022-08-11T12:41:57;2.25;;;1.85;;
15990;SDS011;8100;50.994;4.538;2022-08-11T12:45:02;2.20;;;1.90;;
15990;SDS011;8100;50.994;4.538;2022-08-11T12:48:16;4.22;;;2.03;;
15990;SDS011;8100;50.994;4.538;2022-08-11T12:51:23;3.17;;;2.08;;
15990;SDS011;8100;50.994;4.538;2022-08-11T12:54:30;2.17;;;1.70;;
15990;SDS011;8100;50.994;4.538;2022-08-11T12:57:25;2.42;;;1.80;;
15990;SDS011;8100;50.994;4.538;2022-08-11T13:00:33;2.13;;;1.63;;
15990;SDS011;8100;50.994;4.538;2022-08-11T13:03:38;3.08;;;2.00;;
15990;SDS011;8100;50.994;4.538;2022-08-11T13:06:43;1.77;;;1.23;;
15990;SDS011;8100;50.994;4.538;2022-08-11T13:09:31;4.82;;;1.92;;
15990;SDS011;8100;50.994;4.538;2022-08-11T13:12:18;4.82;;;1.90;;
15990;SDS011;8100;50.994;4.538;2022-08-11T13:15:25;3.15;;;1.80;;
15990;SDS011;8100;50.994;4.538;2022-08-11T13:18:13;1.27;;;1.17;;
15990;SDS011;8100;50.994;4.538;2022-08-11T13:21:01;1.42;;;1.33;;
15990;SDS011;8100;50.994;4.538;2022-08-11T13:23:49;6.80;;;1.70;;
15990;SDS011;8100;50.994;4.538;2022-08-11T13:26:39;2.15;;;1.83;;
15990;SDS011;8100;50.994;4.538;2022-08-11T13:29:28;2.13;;;1.85;;
15990;SDS011;8100;50.994;4.538;2022-08-11T13:32:17;2.30;;;2.00;;
15990;SDS011;8100;50.994;4.538;2022-08-11T13:35:07;2.13;;;1.70;;
15990;SDS011;8100;50.994;4.538;2022-08-11T13:38:00;2.20;;;1.73;;
15990;SDS011;8100;50.994;4.538;2022-08-11T13:40:48;3.38;;;1.70;;
15990;SDS011;8100;50.994;4.538;2022-08-11T13:43:38;2.55;;;1.73;;
15990;SDS011;8100;50.994;4.538;2022-08-11T13:46:26;1.50;;;1.40;;
15990;SDS011;8100;50.994;4.538;2022-08-11T13:49:16;2.25;;;1.80;;
15990;SDS011;8100;50.994;4.538;2022-08-11T13:52:04;4.07;;;2.30;;
15990;SDS011;8100;50.994;4.538;2022-08-11T13:54:52;2.83;;;1.90;;
15990;SDS011;8100;50.994;4.538;2022-08-11T13:57:40;2.25;;;1.90;;
15990;SDS011;8100;50.994;4.538;2022-08-11T14:00:28;2.97;;;1.60;;
15990;SDS011;8100;50.994;4.538;2022-08-11T14:03:16;2.40;;;2.00;;
15990;SDS011;8100;50.994;4.538;2022-08-11T14:06:08;2.25;;;1.75;;
15990;SDS011;8100;50.994;4.538;2022-08-11T14:08:56;2.10;;;1.90;;
15990;SDS011;8100;50.994;4.538;2022-08-11T14:11:44;2.50;;;2.00;;
15990;SDS011;8100;50.994;4.538;2022-08-11T14:14:51;2.63;;;2.00;;
15990;SDS011;8100;50.994;4.538;2022-08-11T14:17:45;3.28;;;1.95;;
15990;SDS011;8100;50.994;4.538;2022-08-11T14:20:38;3.20;;;2.25;;
15990;SDS011;8100;50.994;4.538;2022-08-11T14:23:48;2.50;;;1.80;;
15990;SDS011;8100;50.994;4.538;2022-08-11T14:26:39;2.35;;;1.83;;
15990;SDS011;8100;50.994;4.538;2022-08-11T14:29:27;3.85;;;2.00;;
15990;SDS011;8100;50.994;4.538;2022-08-11T14:32:16;3.70;;;2.30;;
15990;SDS011;8100;50.994;4.538;2022-08-11T14:35:06;1.77;;;1.67;;
15990;SDS011;8100;50.994;4.538;2022-08-11T14:37:55;2.47;;;1.92;;
15990;SDS011;8100;50.994;4.538;2022-08-11T14:40:46;2.28;;;1.95;;
15990;SDS011;8100;50.994;4.538;2022-08-11T14:43:51;2.35;;;2.10;;
15990;SDS011;8100;50.994;4.538;2022-08-11T14:46:58;2.53;;;2.33;;
15990;SDS011;8100;50.994;4.538;2022-08-11T14:49:53;2.63;;;1.95;;
15990;SDS011;8100;50.994;4.538;2022-08-11T14:52:43;2.67;;;2.05;;
15990;SDS011;8100;50.994;4.538;2022-08-11T14:55:36;3.60;;;1.90;;
15990;SDS011;8100;50.994;4.538;2022-08-11T14:58:44;2.38;;;2.13;;
15990;SDS011;8100;50.994;4.538;2022-08-11T15:01:31;2.28;;;2.08;;
15990;SDS011;8100;50.994;4.538;2022-08-11T15:04:36;2.58;;;1.95;;
15990;SDS011;8100;50.994;4.538;2022-08-11T15:07:24;2.55;;;1.90;;
15990;SDS011;8100;50.994;4.538;2022-08-11T15:10:15;2.40;;;1.88;;
15990;SDS011;8100;50.994;4.538;2022-08-11T15:13:03;2.60;;;2.08;;
15990;SDS011;8100;50.994;4.538;2022-08-11T15:15:53;3.97;;;2.30;;
15990;SDS011;8100;50.994;4.538;2022-08-11T15:18:58;3.88;;;2.20;;
15990;SDS011;8100;50.994;4.538;2022-08-11T15:21:46;4.18;;;1.83;;
15990;SDS011;8100;50.994;4.538;2022-08-11T15:24:51;2.00;;;1.80;;
15990;SDS011;8100;50.994;4.538;2022-08-11T15:27:38;2.50;;;1.52;;
15990;SDS011;8100;50.994;4.538;2022-08-11T15:30:43;2.90;;;2.40;;
15990;SDS011;8100;50.994;4.538;2022-08-11T15:33:52;2.30;;;2.10;;
15990;SDS011;8100;50.994;4.538;2022-08-11T15:37:01;2.28;;;2.00;;
15990;SDS011;8100;50.994;4.538;2022-08-11T15:40:12;3.22;;;2.38;;
15990;SDS011;8100;50.994;4.538;2022-08-11T15:43:10;2.53;;;1.90;;
15990;SDS011;8100;50.994;4.538;2022-08-11T15:46:18;2.70;;;2.20;;
15990;SDS011;8100;50.994;4.538;2022-08-11T15:49:17;3.25;;;2.25;;
15990;SDS011;8100;50.994;4.538;2022-08-11T15:52:09;2.08;;;1.83;;
15990;SDS011;8100;50.994;4.538;2022-08-11T15:54:59;1.88;;;1.75;;
15990;SDS011;8100;50.994;4.538;2022-08-11T15:57:48;2.65;;;2.03;;
15990;SDS011;8100;50.994;4.538;2022-08-11T16:00:51;3.45;;;2.22;;
15990;SDS011;8100;50.994;4.538;2022-08-11T16:03:56;2.33;;;1.60;;
15990;SDS011;8100;50.994;4.538;2022-08-11T16:06:59;2.67;;;1.70;;
15990;SDS011;8100;50.994;4.538;2022-08-11T16:09:49;3.35;;;1.67;;
15990;SDS011;8100;50.994;4.538;2022-08-11T16:12:40;2.85;;;1.90;;
15990;SDS011;8100;50.994;4.538;2022-08-11T16:16:00;2.25;;;1.77;;
15990;SDS011;8100;50.994;4.538;2022-08-11T16:18:59;2.25;;;2.05;;
15990;SDS011;8100;50.994;4.538;2022-08-11T16:21:48;4.28;;;2.08;;
15990;SDS011;8100;50.994;4.538;2022-08-11T16:24:40;2.15;;;1.88;;
15990;SDS011;8100;50.994;4.538;2022-08-11T16:27:29;1.73;;;1.35;;
15990;SDS011;8100;50.994;4.538;2022-08-11T16:30:18;2.08;;;1.50;;
15990;SDS011;8100;50.994;4.538;2022-08-11T16:33:06;6.60;;;2.20;;
15990;SDS011;8100;50.994;4.538;2022-08-11T16:35:55;2.38;;;1.80;;
15990;SDS011;8100;50.994;4.538;2022-08-11T16:39:01;2.30;;;1.73;;
15990;SDS011;8100;50.994;4.538;2022-08-11T16:41:51;2.08;;;1.67;;
15990;SDS011;8100;50.994;4.538;2022-08-11T16:44:56;2.33;;;1.77;;
15990;SDS011;8100;50.994;4.538;2022-08-11T16:48:02;2.85;;;1.70;;
15990;SDS011;8100;50.994;4.538;2022-08-11T16:50:51;2.42;;;1.80;;
15990;SDS011;8100;50.994;4.538;2022-08-11T16:53:39;1.50;;;1.30;;
15990;SDS011;8100;50.994;4.538;2022-08-11T16:56:31;3.05;;;2.08;;
15990;SDS011;8100;50.994;4.538;2022-08-11T16:59:23;3.03;;;2.10;;
15990;SDS011;8100;50.994;4.538;2022-08-11T17:02:14;2.17;;;1.77;;
15990;SDS011;8100;50.994;4.538;2022-08-11T17:05:25;3.22;;;2.13;;
15990;SDS011;8100;50.994;4.538;2022-08-11T17:08:36;2.00;;;1.50;;
15990;SDS011;8100;50.994;4.538;2022-08-11T17:11:47;4.50;;;2.03;;
15990;SDS011;8100;50.994;4.538;2022-08-11T17:14:57;2.20;;;1.83;;
15990;SDS011;8100;50.994;4.538;2022-08-11T17:17:47;2.38;;;1.92;;
15990;SDS011;8100;50.994;4.538;2022-08-11T17:20:34;2.92;;;2.20;;
15990;SDS011;8100;50.994;4.538;2022-08-11T17:23:21;2.70;;;1.98;;
15990;SDS011;8100;50.994;4.538;2022-08-11T17:26:05;2.88;;;2.00;;
15990;SDS011;8100;50.994;4.538;2022-08-11T17:28:53;2.35;;;1.65;;
15990;SDS011;8100;50.994;4.538;2022-08-11T17:31:46;3.55;;;2.17;;
15990;SDS011;8100;50.994;4.538;2022-08-11T17:34:52;2.72;;;1.90;;
15990;SDS011;8100;50.994;4.538;2022-08-11T17:38:01;2.90;;;2.33;;
15990;SDS011;8100;50.994;4.538;2022-08-11T17:40:50;3.25;;;1.98;;
15990;SDS011;8100;50.994;4.538;2022-08-11T17:43:56;3.60;;;2.45;;
15990;SDS011;8100;50.994;4.538;2022-08-11T17:46:41;2.58;;;2.20;;
15990;SDS011;8100;50.994;4.538;2022-08-11T17:49:47;3.35;;;2.17;;
15990;SDS011;8100;50.994;4.538;2022-08-11T17:52:37;2.83;;;2.10;;
15990;SDS011;8100;50.994;4.538;2022-08-11T17:55:43;2.63;;;1.98;;
15990;SDS011;8100;50.994;4.538;2022-08-11T17:58:50;3.35;;;2.58;;
15990;SDS011;8100;50.994;4.538;2022-08-11T18:01:57;4.50;;;2.25;;
15990;SDS011;8100;50.994;4.538;2022-08-11T18:05:09;5.18;;;2.30;;
15990;SDS011;8100;50.994;4.538;2022-08-11T18:07:57;2.65;;;2.15;;
15990;SDS011;8100;50.994;4.538;2022-08-11T18:11:03;2.20;;;2.00;;
15990;SDS011;8100;50.994;4.538;2022-08-11T18:14:09;3.42;;;2.40;;
15990;SDS011;8100;50.994;4.538;2022-08-11T18:17:16;2.15;;;1.95;;
15990;SDS011;8100;50.994;4.538;2022-08-11T18:20:21;3.00;;;2.03;;
15990;SDS011;8100;50.994;4.538;2022-08-11T18:23:26;3.08;;;2.17;;
15990;SDS011;8100;50.994;4.538;2022-08-11T18:26:31;4.50;;;2.35;;
15990;SDS011;8100;50.994;4.538;2022-08-11T18:29:35;3.00;;;2.03;;
15990;SDS011;8100;50.994;4.538;2022-08-11T18:32:44;2.88;;;2.33;;
15990;SDS011;8100;50.994;4.538;2022-08-11T18:35:53;2.75;;;2.30;;
15990;SDS011;8100;50.994;4.538;2022-08-11T18:39:02;3.40;;;2.20;;
15990;SDS011;8100;50.994;4.538;2022-08-11T18:42:11;2.40;;;2.20;;
15990;SDS011;8100;50.994;4.538;2022-08-11T18:45:19;4.10;;;2.20;;
15990;SDS011;8100;50.994;4.538;2022-08-11T18:48:24;4.90;;;2.00;;
15990;SDS011;8100;50.994;4.538;2022-08-11T18:51:31;4.68;;;2.42;;
15990;SDS011;8100;50.994;4.538;2022-08-11T18:54:39;2.40;;;2.20;;
15990;SDS011;8100;50.994;4.538;2022-08-11T18:57:46;2.42;;;2.00;;